Terminal Aerodrome Forecast
Issued by NWS

Home | Current Version | Previous Version | Text Only | Print | Product List | Glossary On
Versions: 1 2 3 4 5 6 7 8 9 10 11 12 13 14 15 16 17 18 19 20 21 22 23 24 25 26 27 28 29
000
FTUS45 KBOU 181746
TAFBJC
TAF
KBJC 181746Z 1818/1918 27022G36KT P6SM FEW150 SCT220
     FM190100 23011KT P6SM FEW150 SCT200
     FM190500 17008KT P6SM SCT100 BKN200
     FM190800 02014KT P6SM FEW025 SCT045 BKN120
     FM191100 03014KT 3SM BR BKN006 OVC015
      TEMPO 1911/1915 1SM -FZDZ BR VV004
     FM191500 06014KT 2SM -FZDZ BR BKN003 OVC007=

USA.gov is the U.S. government's official web portal to all federal, state and local government web resources and services.